Home > Products > Valid Products > TAF

000
FTUS44 KCRP 050902 AAB
TAFALI
TAF AMD
KALI 050902Z 0509/0606 17006KT 5SM BR SCT015
     FM051300 17013KT P6SM SCT025 SCT035
     FM052000 13017G23KT P6SM FEW050
     FM060200 15010KT P6SM SKC=



000
FTUS44 KCRP 050902 AAB
TAFALI
TAF AMD
KALI 050902Z 0509/0606 17006KT 5SM BR SCT015
     FM051300 17013KT P6SM SCT025 SCT035
     FM052000 13017G23KT P6SM FEW050
     FM060200 15010KT P6SM SKC=



000
FTUS44 KCRP 050603 AAA
TAFALI
TAF AMD
KALI 050603Z 0506/0606 17006KT P6SM SCT015
      TEMPO 0506/0508 BKN015
     FM051400 17013KT P6SM SCT025 SCT035
     FM052000 13017G23KT P6SM FEW050
     FM060200 15010KT P6SM SKC=



000
FTUS44 KCRP 050603 AAA
TAFALI
TAF AMD
KALI 050603Z 0506/0606 17006KT P6SM SCT015
      TEMPO 0506/0508 BKN015
     FM051400 17013KT P6SM SCT025 SCT035
     FM052000 13017G23KT P6SM FEW050
     FM060200 15010KT P6SM SKC=



000
FTUS44 KCRP 050527
TAFALI
TAF
KALI 050527Z 0506/0606 17006KT P6SM SKC
      TEMPO 0511/0514 SCT012
     FM051400 17013KT P6SM SCT025 SCT035
     FM052000 13017G23KT P6SM FEW050
     FM060200 15010KT P6SM SKC=



000
FTUS44 KCRP 050527
TAFVCT
TAF
KVCT 050527Z 0506/0606 17005KT P6SM FEW018
      TEMPO 0506/0508 BKN020
     FM051400 20009KT P6SM SCT025 SCT035
     FM051900 16014G20KT P6SM FEW050
     FM060100 17008KT P6SM SKC=



000
FTUS44 KCRP 050527
TAFLRD
TAF
KLRD 050527Z 0506/0606 14012KT P6SM SKC
     FM051500 15012KT P6SM FEW040
     FM060100 14015G20KT P6SM SKC=



000
FTUS44 KCRP 050527
TAFCRP
TAF
KCRP 050527Z 0506/0606 16007KT P6SM FEW015
      TEMPO 0512/0514 SCT015
     FM051400 17012G17KT P6SM SCT025 SCT035
     FM051900 14022G28KT P6SM FEW035
     FM060200 15014KT P6SM FEW018=



000
FTUS44 KCRP 042335
TAFALI
TAF
KALI 042335Z 0500/0524 14013G20KT P6SM FEW040
     FM050200 14009KT P6SM SCT250
     FM050900 15004KT P6SM SCT015
      TEMPO 0510/0513 5SM BR
     FM051500 17014KT P6SM SCT025
     FM052000 14015G22KT P6SM SCT045=



000
FTUS44 KCRP 042335
TAFLRD
TAF
KLRD 042335Z 0500/0524 12016G22KT P6SM SCT080
     FM050500 14010KT P6SM FEW020
     FM051600 15012G18KT P6SM SCT015=



000
FTUS44 KCRP 042335
TAFCRP
TAF
KCRP 042335Z 0500/0524 15015G22KT P6SM FEW025 SCT035
     FM050200 15009KT P6SM FEW015 SCT250
     FM050800 16005KT P6SM SCT015
      TEMPO 0510/0513 BKN015
     FM051500 17012G20KT P6SM SCT025
     FM051900 14015G22KT P6SM SCT040=



000
FTUS44 KCRP 042335
TAFVCT
TAF
KVCT 042335Z 0500/0524 17010KT P6SM FEW025
     FM051000 VRB03KT 6SM BR SCT015
      TEMPO 0510/0513 5SM BR
     FM051500 18012KT P6SM SCT025
     FM051900 16014G20KT P6SM FEW050=



000
FTUS44 KCRP 041723
TAFALI
TAF
KALI 041723Z 0418/0518 16012G22KT P6SM SCT040
     FM050200 14011KT P6SM SCT250
     FM050900 16004KT P6SM SCT015
     FM051500 16012G22KT P6SM SCT025=



000
FTUS44 KCRP 041723
TAFLRD
TAF
KLRD 041723Z 0418/0518 15016G22KT P6SM SCT080
     FM050500 14015KT P6SM FEW020
     FM051500 15010KT P6SM SCT015=



000
FTUS44 KCRP 041723
TAFVCT
TAF
KVCT 041723Z 0418/0518 17012G18KT P6SM VCTS SCT040CB
     FM050000 15010KT P6SM FEW025 SCT250
     FM051000 VRB03KT 6SM BR SCT015
      TEMPO 0510/0513 BKN015
     FM051500 18012KT P6SM SCT025=



000
FTUS44 KCRP 041723
TAFCRP
TAF
KCRP 041723Z 0418/0518 15015G22KT P6SM SCT035
     FM050200 15012KT P6SM FEW015 SCT250
     FM050800 16005KT P6SM SCT015
      TEMPO 0510/0513 BKN015
     FM051500 17012G22KT P6SM SCT025=



000
FTUS44 KCRP 041723
TAFCRP
TAF
KCRP 041723Z 0418/0518 15015G22KT P6SM SCT035
     FM050200 15012KT P6SM FEW015 SCT250
     FM050800 16005KT P6SM SCT015
      TEMPO 0510/0513 BKN015
     FM051500 17012G22KT P6SM SCT025=



000
FTUS44 KCRP 041723
TAFLRD
TAF
KLRD 041723Z 0418/0518 15016G22KT P6SM SCT080
     FM050500 14015KT P6SM FEW020
     FM051500 15010KT P6SM SCT015=



000
FTUS44 KCRP 041723
TAFALI
TAF
KALI 041723Z 0418/0518 16012G22KT P6SM SCT040
     FM050200 14011KT P6SM SCT250
     FM050900 16004KT P6SM SCT015
     FM051500 16012G22KT P6SM SCT025=



000
FTUS44 KCRP 041723
TAFVCT
TAF
KVCT 041723Z 0418/0518 17012G18KT P6SM VCTS SCT040CB
     FM050000 15010KT P6SM FEW025 SCT250
     FM051000 VRB03KT 6SM BR SCT015
      TEMPO 0510/0513 BKN015
     FM051500 18012KT P6SM SCT025=



000
FTUS44 KCRP 041125
TAFLRD
TAF
KLRD 041125Z 0412/0512 14010KT P6SM FEW030
     FM050100 13016G22KT P6SM BKN080
     FM050500 14015KT P6SM FEW020
     FM051000 15010KT P6SM BKN015=



000
FTUS44 KCRP 041125
TAFVCT
TAF
KVCT 041125Z 0412/0512 VRB03KT P6SM SCT020 BKN080
      TEMPO 0412/0415 5SM BR BKN018
     FM041500 19008KT P6SM VCSH SCT025 BKN080
      TEMPO 0415/0419 VRB15G25KT 5SM TSRA BR OVC025CB
     FM042000 15012G18KT P6SM VCTS SCT040CB BKN250
     FM050000 15010KT P6SM FEW025 SCT250
     FM051000 VRB03KT 6SM BR SCT015=



000
FTUS44 KCRP 041125
TAFCRP
TAF
KCRP 041125Z 0412/0512 17006KT P6SM SCT015 BKN070
      TEMPO 0412/0414 BKN015
     FM041400 16010G16KT P6SM VCSH SCT025 BKN150
      TEMPO 0414/0416 BKN025
     FM042000 14015G22KT P6SM SCT035 BKN250
     FM050200 15012KT P6SM FEW015 SCT250
     FM050800 16005KT P6SM SCT015=



000
FTUS44 KCRP 041125
TAFVCT
TAF
KVCT 041125Z 0412/0512 VRB03KT P6SM SCT020 BKN080
      TEMPO 0412/0415 5SM BR BKN018
     FM041500 19008KT P6SM VCSH SCT025 BKN080
      TEMPO 0415/0419 VRB15G25KT 5SM TSRA BR OVC025CB
     FM042000 15012G18KT P6SM VCTS SCT040CB BKN250
     FM050000 15010KT P6SM FEW025 SCT250
     FM051000 VRB03KT 6SM BR SCT015=



000
FTUS44 KCRP 041125
TAFALI
TAF
KALI 041125Z 0412/0512 15005KT 5SM BR FEW015
      TEMPO 0412/0413 2SM BR BKN015
     FM041400 17010KT P6SM FEW015 SCT100
     FM042100 13015G22KT P6SM SCT040 BKN250
     FM050200 14011KT P6SM SCT250
     FM050900 16004KT P6SM SCT015=



000
FTUS44 KCRP 041125
TAFLRD
TAF
KLRD 041125Z 0412/0512 14010KT P6SM FEW030
     FM050100 13016G22KT P6SM BKN080
     FM050500 14015KT P6SM FEW020
     FM051000 15010KT P6SM BKN015=



000
FTUS44 KCRP 041125
TAFCRP
TAF
KCRP 041125Z 0412/0512 17006KT P6SM SCT015 BKN070
      TEMPO 0412/0414 BKN015
     FM041400 16010G16KT P6SM VCSH SCT025 BKN150
      TEMPO 0414/0416 BKN025
     FM042000 14015G22KT P6SM SCT035 BKN250
     FM050200 15012KT P6SM FEW015 SCT250
     FM050800 16005KT P6SM SCT015=



000
FTUS44 KCRP 041125
TAFALI
TAF
KALI 041125Z 0412/0512 15005KT 5SM BR FEW015
      TEMPO 0412/0413 2SM BR BKN015
     FM041400 17010KT P6SM FEW015 SCT100
     FM042100 13015G22KT P6SM SCT040 BKN250
     FM050200 14011KT P6SM SCT250
     FM050900 16004KT P6SM SCT015=



000
FTUS44 KCRP 040527
TAFCRP
TAF
KCRP 040527Z 0406/0506 16006KT P6SM SCT015
     FM041400 16010G16KT P6SM VCSH SCT025 BKN250
      TEMPO 0414/0416 BKN025
     FM042000 14015G22KT P6SM SCT035 BKN250
     FM050100 15012KT P6SM FEW015 SCT250=



000
FTUS44 KCRP 040527
TAFVCT
TAF
KVCT 040527Z 0406/0506 15004KT P6SM FEW015
     FM041000 00000KT 4SM BR SCT008
      TEMPO 0411/0413 2SM BR BKN008
     FM041400 19008KT P6SM VCSH SCT025 BKN060
      TEMPO 0416/0420 VRB15G25KT 5SM TSRA BR OVC025CB
     FM042000 15013G19KT P6SM VCTS SCT040CB BKN250
     FM050000 15010KT P6SM FEW025 SCT250=



000
FTUS44 KCRP 040527
TAFLRD
TAF
KLRD 040527Z 0406/0506 13010KT P6SM FEW030
     FM050100 13016G22KT P6SM SCT080=



000
FTUS44 KCRP 040527
TAFALI
TAF
KALI 040527Z 0406/0506 15006KT P6SM FEW030 BKN150
     FM040900 18004KT 3SM BR FEW015
      TEMPO 0410/0413 1SM BR BKN015
     FM041400 17010KT P6SM FEW015 SCT100
     FM042100 13015G22KT P6SM SCT040 BKN250
     FM050200 14011KT P6SM SCT250=



000
FTUS44 KCRP 032323
TAFALI
TAF
KALI 032323Z 0400/0424 11015KT P6SM VCTS SCT050CB BKN150
     FM040100 15007KT P6SM FEW030 BKN150
     FM040900 VRB03KT 3SM BR FEW015
      TEMPO 0410/0413 2SM BR BKN015
     FM041400 16012KT P6SM SCT025
     FM042100 13015G22KT P6SM SCT040=



000
FTUS44 KCRP 032323
TAFVCT
TAF
KVCT 032323Z 0400/0424 17013KT P6SM BKN150
     FM040200 16005KT P6SM FEW025
     FM041000 00000KT 4SM BR SCT015
      TEMPO 0411/0413 2SM BR
     FM041400 19008KT P6SM SCT025
     FM042000 15013G19KT P6SM SCT040=



000
FTUS44 KCRP 032323
TAFLRD
TAF
KLRD 032323Z 0400/0424 06006KT P6SM FEW100
     FM040200 12014G18KT P6SM FEW080 BKN200
     FM040500 14008KT P6SM FEW030=



000
FTUS44 KCRP 032323
TAFCRP
TAF
KCRP 032323Z 0400/0424 13012KT P6SM FEW030 BKN150
     FM040500 17004KT P6SM FEW015
     FM041400 15012KT P6SM SCT025
     FM042000 14015G22KT P6SM SCT035=



000
FTUS44 KCRP 032323
TAFALI
TAF
KALI 032323Z 0400/0424 11015KT P6SM VCTS SCT050CB BKN150
     FM040100 15007KT P6SM FEW030 BKN150
     FM040900 VRB03KT 3SM BR FEW015
      TEMPO 0410/0413 2SM BR BKN015
     FM041400 16012KT P6SM SCT025
     FM042100 13015G22KT P6SM SCT040=



000
FTUS44 KCRP 032323
TAFLRD
TAF
KLRD 032323Z 0400/0424 06006KT P6SM FEW100
     FM040200 12014G18KT P6SM FEW080 BKN200
     FM040500 14008KT P6SM FEW030=



000
FTUS44 KCRP 032323
TAFVCT
TAF
KVCT 032323Z 0400/0424 17013KT P6SM BKN150
     FM040200 16005KT P6SM FEW025
     FM041000 00000KT 4SM BR SCT015
      TEMPO 0411/0413 2SM BR
     FM041400 19008KT P6SM SCT025
     FM042000 15013G19KT P6SM SCT040=



000
FTUS44 KCRP 032323
TAFCRP
TAF
KCRP 032323Z 0400/0424 13012KT P6SM FEW030 BKN150
     FM040500 17004KT P6SM FEW015
     FM041400 15012KT P6SM SCT025
     FM042000 14015G22KT P6SM SCT035=



000
FTUS44 KCRP 031809 AAA
TAFCRP
TAF AMD
KCRP 031809Z 0318/0418 12012G20KT P6SM -SHRA VCTS SCT035CB BKN070
     FM032300 16009KT P6SM FEW030 BKN150
     FM040800 15004KT P6SM FEW015
     FM041400 15012KT P6SM SCT040=



000
FTUS44 KCRP 031809 AAA
TAFCRP
TAF AMD
KCRP 031809Z 0318/0418 12012G20KT P6SM -SHRA VCTS SCT035CB BKN070
     FM032300 16009KT P6SM FEW030 BKN150
     FM040800 15004KT P6SM FEW015
     FM041400 15012KT P6SM SCT040=



000
FTUS44 KCRP 031720
TAFLRD
TAF
KLRD 031720Z 0318/0418 06006KT P6SM FEW100
     FM040200 12014G18KT P6SM FEW080 BKN200
     FM040700 15010KT P6SM FEW030=



000
FTUS44 KCRP 031720
TAFVCT
TAF
KVCT 031720Z 0318/0418 19005KT P6SM SCT035
     FM031900 16010KT P6SM VCSH SCT050 BKN200
     FM040200 16005KT P6SM FEW025
     FM041000 00000KT 4SM BR SCT015
     FM041400 19008KT P6SM SCT035=



000
FTUS44 KCRP 031720
TAFALI
TAF
KALI 031720Z 0318/0418 17005KT P6SM SCT040
     FM032000 12014KT P6SM VCTS SCT050CB BKN250
     FM040200 15007KT P6SM FEW030 BKN150
     FM040900 VRB03KT 3SM BR FEW015
     FM041400 16012KT P6SM SCT040=



000
FTUS44 KCRP 031720
TAFCRP
TAF
KCRP 031720Z 0318/0418 12012G20KT P6SM VCTS SCT035CB BKN070
     FM032300 16009KT P6SM FEW030 BKN150
     FM040800 15004KT P6SM FEW015
     FM041400 15012KT P6SM SCT040=



000
FTUS44 KCRP 031131
TAFALI
TAF
KALI 031131Z 0312/0412 VRB03KT 3SM BR FEW008
      TEMPO 0312/0313 1SM BR SCT008
     FM031400 17005KT P6SM SCT025
     FM032100 12014KT P6SM VCTS SCT050CB BKN250
     FM040200 15007KT P6SM FEW030 BKN150
     FM040900 VRB03KT 3SM BR FEW015 SCT200=



000
FTUS44 KCRP 031131
TAFCRP
TAF
KCRP 031131Z 0312/0412 18004KT P6SM FEW020 SCT250
     FM031500 18008KT P6SM SCT030 BKN120
     FM031900 13014G20KT P6SM VCTS SCT035CB BKN120
     FM040100 16009KT P6SM FEW030 BKN150
     FM040800 15004KT P6SM FEW015 SCT250=



000
FTUS44 KCRP 031131
TAFVCT
TAF
KVCT 031131Z 0312/0412 00000KT 4SM BR FEW007
      TEMPO 0312/0314 2SM BR SCT007
     FM031400 19005KT P6SM FEW015
     FM031900 16008KT P6SM SCT050 BKN200
     FM040200 16005KT P6SM FEW025 SCT200
     FM041000 00000KT 4SM BR FEW009=



000
FTUS44 KCRP 031131
TAFCRP
TAF
KCRP 031131Z 0312/0412 18004KT P6SM FEW020 SCT250
     FM031500 18008KT P6SM SCT030 BKN120
     FM031900 13014G20KT P6SM VCTS SCT035CB BKN120
     FM040100 16009KT P6SM FEW030 BKN150
     FM040800 15004KT P6SM FEW015 SCT250=



000
FTUS44 KCRP 031131
TAFALI
TAF
KALI 031131Z 0312/0412 VRB03KT 3SM BR FEW008
      TEMPO 0312/0313 1SM BR SCT008
     FM031400 17005KT P6SM SCT025
     FM032100 12014KT P6SM VCTS SCT050CB BKN250
     FM040200 15007KT P6SM FEW030 BKN150
     FM040900 VRB03KT 3SM BR FEW015 SCT200=



000
FTUS44 KCRP 031131
TAFLRD
TAF
KLRD 031131Z 0312/0412 13007KT P6SM SKC
     FM031600 12008KT P6SM FEW100
     FM040200 12014G18KT P6SM FEW080 BKN200
     FM040600 15010KT P6SM FEW028 SCT100=



000
FTUS44 KCRP 031046 AAB
TAFALI
TAF AMD
KALI 031046Z 0311/0406 VRB03KT 1/2SM FG FEW002
      TEMPO 0311/0313 2SM BR SCT009
     FM031330 17005KT P6SM SCT025
     FM032100 12014KT P6SM VCTS SCT050CB BKN250
     FM040200 15007KT P6SM FEW030 BKN150=



000
FTUS44 KCRP 030857 AAA
TAFVCT
TAF AMD
KVCT 030857Z 0309/0406 VRB03KT P6SM SKC
     FM031030 00000KT 3SM BR FEW007
      TEMPO 0311/0314 1SM BR SCT007
     FM031400 19005KT P6SM FEW015
     FM031900 16008KT P6SM SCT050 BKN200
     FM040200 16005KT P6SM FEW025 SCT200=



000
FTUS44 KCRP 030857 AAA
TAFVCT
TAF AMD
KVCT 030857Z 0309/0406 VRB03KT P6SM SKC
     FM031030 00000KT 3SM BR FEW007
      TEMPO 0311/0314 1SM BR SCT007
     FM031400 19005KT P6SM FEW015
     FM031900 16008KT P6SM SCT050 BKN200
     FM040200 16005KT P6SM FEW025 SCT200=



000
FTUS44 KCRP 030726 AAA
TAFALI
TAF AMD
KALI 030726Z 0307/0406 VRB03KT 3SM BR FEW009
      TEMPO 0309/0313 1SM BR SCT009
     FM031300 17005KT P6SM SCT025
     FM032100 12014KT P6SM VCTS SCT050CB BKN250
     FM040200 15007KT P6SM FEW030 BKN150=



000
FTUS44 KCRP 030526
TAFCRP
TAF
KCRP 030526Z 0306/0406 18004KT P6SM FEW025 SCT250
     FM031500 18008KT P6SM SCT030 BKN120
     FM031900 13014G20KT P6SM VCTS SCT035CB BKN120 PROB30 0319/0323
      VRB25G35KT 4SM TSRA BKN025CB OVC060
     FM040100 16009KT P6SM FEW030 BKN150=



000
FTUS44 KCRP 030526
TAFALI
TAF
KALI 030526Z 0306/0406 VRB05KT P6SM SKC
     FM031000 VRB03KT 5SM BR FEW009
     FM031300 17005KT P6SM SCT025
     FM032100 12014KT P6SM VCTS SCT050CB BKN250
     FM040200 15007KT P6SM FEW030 BKN150=



000
FTUS44 KCRP 030526
TAFLRD
TAF
KLRD 030526Z 0306/0406 14010KT P6SM SKC
     FM031600 13008KT P6SM FEW100
     FM040200 12014G18KT P6SM FEW080 BKN200=



000
FTUS44 KCRP 030526
TAFVCT
TAF
KVCT 030526Z 0306/0406 18004KT P6SM SKC
     FM030900 VRB02KT 3SM BR FEW007
      TEMPO 0310/0314 1SM BR SCT007
     FM031400 19005KT P6SM FEW015
     FM031900 16008KT P6SM SCT050 BKN200
     FM040200 16005KT P6SM FEW025 SCT200=



000
FTUS44 KCRP 022329
TAFLRD
TAF
KLRD 022329Z 0300/0324 10013KT P6SM FEW060
     FM030400 12004KT P6SM SKC
      TEMPO 0311/0313 SCT015
     FM031500 14008KT P6SM SCT050=



000
FTUS44 KCRP 022329
TAFCRP
TAF
KCRP 022329Z 0300/0324 11012KT P6SM SCT250
     FM030100 VRB04KT P6SM FEW025 SCT250
     FM031000 18005KT P6SM SCT025 SCT100
     FM032000 13014G20KT P6SM SCT035 BKN100=



000
FTUS44 KCRP 022329
TAFVCT
TAF
KVCT 022329Z 0300/0324 17010KT P6SM SKC
     FM030900 VRB02KT 4SM BR FEW007
      TEMPO 0310/0314 1 1/2SM BR SCT007
     FM031400 20004KT P6SM SCT025
     FM031700 17006KT P6SM SCT035 SCT050=



000
FTUS44 KCRP 022329
TAFALI
TAF
KALI 022329Z 0300/0324 10012KT P6SM SKC
     FM030100 VRB05KT P6SM SKC
     FM031000 VRB03KT 5SM BR FEW009
     FM031300 17005KT P6SM SCT025
     FM032200 12013G19KT P6SM SCT050=



000
FTUS44 KCRP 022329
TAFLRD
TAF
KLRD 022329Z 0300/0324 10013KT P6SM FEW060
     FM030400 12004KT P6SM SKC
      TEMPO 0311/0313 SCT015
     FM031500 14008KT P6SM SCT050=



000
FTUS44 KCRP 022329
TAFVCT
TAF
KVCT 022329Z 0300/0324 17010KT P6SM SKC
     FM030900 VRB02KT 4SM BR FEW007
      TEMPO 0310/0314 1 1/2SM BR SCT007
     FM031400 20004KT P6SM SCT025
     FM031700 17006KT P6SM SCT035 SCT050=



000
FTUS44 KCRP 022329
TAFCRP
TAF
KCRP 022329Z 0300/0324 11012KT P6SM SCT250
     FM030100 VRB04KT P6SM FEW025 SCT250
     FM031000 18005KT P6SM SCT025 SCT100
     FM032000 13014G20KT P6SM SCT035 BKN100=



000
FTUS44 KCRP 022329
TAFALI
TAF
KALI 022329Z 0300/0324 10012KT P6SM SKC
     FM030100 VRB05KT P6SM SKC
     FM031000 VRB03KT 5SM BR FEW009
     FM031300 17005KT P6SM SCT025
     FM032200 12013G19KT P6SM SCT050=



000
FTUS44 KCRP 021733
TAFALI
TAF
KALI 021733Z 0218/0318 05005KT P6SM FEW040 SCT250
     FM022200 12011KT P6SM FEW200
     FM030400 VRB03KT P6SM FEW015
      TEMPO 0311/0313 5SM BR=



000
FTUS44 KCRP 021733
TAFLRD
TAF
KLRD 021733Z 0218/0318 07004KT P6SM SKC
     FM022300 11012KT P6SM FEW100
     FM030500 08004KT P6SM SKC=



000
FTUS44 KCRP 021733
TAFCRP
TAF
KCRP 021733Z 0218/0318 07005KT P6SM FEW025 SCT035 SCT250
     FM022000 11012KT P6SM FEW200
     FM030300 VRB04KT P6SM FEW015=



000
FTUS44 KCRP 021733
TAFVCT
TAF
KVCT 021733Z 0218/0318 07011KT P6SM FEW040 FEW250
     FM022300 14012KT P6SM FEW250
     FM031000 VRB02KT 4SM BR SKC
      TEMPO 0312/0314 2SM BR
     FM031400 34004KT P6SM SKC=



000
FTUS44 KCRP 021325 AAA
TAFVCT
TAF AMD
KVCT 021325Z 0213/0312 02005KT P6SM SKC
      TEMPO 0213/0214 4SM BR
     FM022300 14012KT P6SM FEW250
     FM031000 19002KT 4SM BR SKC=



000
FTUS44 KCRP 021325 AAA
TAFVCT
TAF AMD
KVCT 021325Z 0213/0312 02005KT P6SM SKC
      TEMPO 0213/0214 4SM BR
     FM022300 14012KT P6SM FEW250
     FM031000 19002KT 4SM BR SKC=



000
FTUS44 KCRP 021322 AAA
TAFCRP
TAF AMD
KCRP 021322Z 0213/0312 VRB05KT P6SM FEW019 BKN250
      TEMPO 0213/0214 BKN019
     FM022000 10012KT P6SM FEW200=



000
FTUS44 KCRP 021322 AAA
TAFCRP
TAF AMD
KCRP 021322Z 0213/0312 VRB05KT P6SM FEW019 BKN250
      TEMPO 0213/0214 BKN019
     FM022000 10012KT P6SM FEW200=



000
FTUS44 KCRP 021125
TAFVCT
TAF
KVCT 021125Z 0212/0312 VRB05KT P6SM SKC
      TEMPO 0212/0213 4SM BR
     FM022300 14012KT P6SM FEW250
     FM031000 19002KT 4SM BR SKC=



000
FTUS44 KCRP 021125
TAFALI
TAF
KALI 021125Z 0212/0312 VRB05KT P6SM SCT250
     FM022200 12011KT P6SM FEW200=



000
FTUS44 KCRP 021125
TAFCRP
TAF
KCRP 021125Z 0212/0312 VRB05KT P6SM FEW020 BKN250
     FM022000 10012KT P6SM FEW200=



000
FTUS44 KCRP 021125
TAFLRD
TAF
KLRD 021125Z 0212/0312 VRB04KT P6SM SKC
     FM030000 11012KT P6SM FEW100=



000
FTUS44 KCRP 021125
TAFVCT
TAF
KVCT 021125Z 0212/0312 VRB05KT P6SM SKC
      TEMPO 0212/0213 4SM BR
     FM022300 14012KT P6SM FEW250
     FM031000 19002KT 4SM BR SKC=



000
FTUS44 KCRP 021125
TAFCRP
TAF
KCRP 021125Z 0212/0312 VRB05KT P6SM FEW020 BKN250
     FM022000 10012KT P6SM FEW200=



000
FTUS44 KCRP 021125
TAFLRD
TAF
KLRD 021125Z 0212/0312 VRB04KT P6SM SKC
     FM030000 11012KT P6SM FEW100=



000
FTUS44 KCRP 021125
TAFALI
TAF
KALI 021125Z 0212/0312 VRB05KT P6SM SCT250
     FM022200 12011KT P6SM FEW200=



000
FTUS44 KCRP 021058 AAA
TAFALI
TAF AMD
KALI 021058Z 0211/0306 VRB05KT P6SM SKC
     FM022200 12010KT P6SM SKC=



000
FTUS44 KCRP 021058 AAA
TAFALI
TAF AMD
KALI 021058Z 0211/0306 VRB05KT P6SM SKC
     FM022200 12010KT P6SM SKC=



    US Dept of Commerce
    National Oceanic and Atmospheric Administration
    National Weather Service
    1325 East West Highway
    Silver Spring, MD 20910
    Page Author: NWS Internet Services Team
Disclaimer
Information Quality
Credits
Glossary
Privacy Policy
Freedom of Information Act (FOIA)
About Us
Career Opportunities